Casablanca, Morocco
Current Conditions -  °F | °C
As of 9:00 AM on Monday 20 Oct 2014 (Local Time) from GMMC Reporting Station
Broken Clouds Broken Clouds  
Wind Chill: 73°   Ceiling: 20000
Heat Index: 73°   Visibility: 5mi
Dew Point: 54°   Wind: 2mph
Humidity: 50%   Direction: 110°ESE
Pressure: 29.88"   Gusts: NA
Location:  33.6°N, 7.62°W
Report Text: GMMC 200800Z 11002KT 8000 BKN200 23/12 Q1012
Loading
Personal Weather Stations






























Interactive Weather Map New forecast layout! Learn more

10-Day Weather Forecast

Advertisements
Track Severe Weather on mobile